Time;durP1;ratioP1;P1;durP2;ratioP2;P2;SDS_P1;SDS_P2;PMS_P1;PMS_P2;Temp;Humidity;BMP_temperature;BMP_pressure;BME280_temperature;BME280_humidity;BME280_pressure;Samples;Min_cycle;Max_cycle;Signal;HPM_P1;HPM_P2
2022/08/31 00:04:01;;;;;;;0.10;0.10;;;16.90;99.90;226.50;231333.00;;;;4951393;28;20230;-76
2022/08/31 00:06:33;;;;;;;0.00;0.00;;;16.90;99.90;226.50;231333.00;;;;4951750;29;20202;-76
2022/08/31 00:09:06;;;;;;;0.00;0.00;;;16.90;99.90;226.50;231333.00;;;;4950056;28;20203;-77
2022/08/31 00:11:36;;;;;;;0.00;0.00;;;16.90;99.90;226.50;231333.00;;;;4937358;29;20198;-76
2022/08/31 00:14:10;;;;;;;0.08;0.08;;;16.90;99.90;226.50;231333.00;;;;4948552;29;20581;-76
2022/08/31 00:16:45;;;;;;;0.00;0.00;;;17.00;99.90;226.50;231333.00;;;;4955771;29;20559;-76
2022/08/31 00:19:17;;;;;;;0.00;0.00;;;17.00;99.90;226.50;231333.00;;;;4953753;28;20669;-76
2022/08/31 00:21:48;;;;;;;0.00;0.00;;;16.90;99.90;226.50;231333.00;;;;4947140;29;20213;-77
2022/08/31 00:24:18;;;;;;;0.00;0.00;;;16.90;99.90;226.50;231333.00;;;;4954053;28;20226;-77
2022/08/31 00:26:49;;;;;;;0.00;0.00;;;16.90;99.90;226.50;231333.00;;;;4944079;28;20210;-76
2022/08/31 00:29:19;;;;;;;0.00;0.00;;;16.90;99.90;226.50;231333.00;;;;4955586;28;20593;-76
2022/08/31 00:31:49;;;;;;;0.00;0.00;;;16.90;99.90;226.50;231333.00;;;;4950238;28;20224;-76
2022/08/31 00:34:25;;;;;;;0.00;0.00;;;16.90;99.90;226.50;231333.00;;;;4955380;28;20657;-75
2022/08/31 00:36:56;;;;;;;0.00;0.00;;;16.90;99.90;226.50;231333.00;;;;4950941;28;20198;-76
2022/08/31 00:39:26;;;;;;;0.00;0.00;;;16.90;99.90;226.50;231333.00;;;;4936316;29;20199;-76
2022/08/31 00:41:57;;;;;;;0.00;0.00;;;16.80;99.90;226.50;231333.00;;;;4953512;28;20210;-74
2022/08/31 00:44:27;;;;;;;0.00;0.00;;;16.80;99.90;226.50;231333.00;;;;4955176;28;20214;-75
2022/08/31 00:46:57;;;;;;;0.00;0.00;;;16.80;99.90;226.50;231333.00;;;;4955458;29;20198;-75
2022/08/31 00:49:33;;;;;;;0.00;0.00;;;16.80;99.90;226.50;231333.00;;;;4947567;28;20222;-75
2022/08/31 00:52:08;;;;;;;0.00;0.00;;;16.70;99.90;226.50;231333.00;;;;4950348;29;20209;-76
2022/08/31 00:54:45;;;;;;;0.00;0.00;;;16.70;99.90;226.50;231333.00;;;;4936107;29;20222;-77
2022/08/31 00:57:17;;;;;;;0.00;0.00;;;16.70;99.90;226.50;231333.00;;;;4953937;29;20575;-76
2022/08/31 01:00:07;;;;;;;0.00;0.00;;;16.70;99.90;226.50;231333.00;;;;4950601;28;20202;-76
2022/08/31 01:02:38;;;;;;;0.00;0.00;;;16.70;99.90;226.50;231333.00;;;;4951348;29;20197;-76
2022/08/31 01:05:12;;;;;;;0.00;0.00;;;16.70;99.90;226.50;231333.00;;;;4961749;28;20206;-77
2022/08/31 01:07:46;;;;;;;0.00;0.00;;;16.70;99.90;226.50;231333.00;;;;4940285;29;20204;-76
2022/08/31 01:10:20;;;;;;;0.00;0.00;;;16.70;99.90;226.50;231333.00;;;;4939862;29;20202;-76
2022/08/31 01:12:55;;;;;;;0.00;0.00;;;16.70;99.90;226.50;231333.00;;;;4955464;28;20209;-76
2022/08/31 01:15:27;;;;;;;0.00;0.00;;;16.60;99.90;226.50;231333.00;;;;4940477;29;20622;-76
2022/08/31 01:18:01;;;;;;;0.00;0.00;;;16.60;99.90;226.50;231333.00;;;;4949322;28;20201;-76
2022/08/31 01:20:45;;;;;;;0.00;0.00;;;16.60;99.90;226.50;231333.00;;;;4938803;29;20204;-75
2022/08/31 01:23:26;;;;;;;0.00;0.00;;;16.60;99.90;226.50;231333.00;;;;4940121;29;20304;-75
2022/08/31 01:25:58;;;;;;;0.00;0.00;;;16.60;99.90;226.50;231333.00;;;;4954659;28;20256;-75
2022/08/31 01:28:31;;;;;;;0.00;0.00;;;16.50;99.90;226.50;231333.00;;;;4935028;29;20197;-75
2022/08/31 01:31:07;;;;;;;0.00;0.00;;;16.40;99.90;226.50;231333.00;;;;4950808;28;20191;-75
2022/08/31 01:33:41;;;;;;;0.00;0.00;;;16.40;99.90;226.50;231333.00;;;;4949563;28;20724;-76
2022/08/31 01:36:13;;;;;;;0.00;0.00;;;16.30;99.90;226.50;231333.00;;;;4950127;29;20198;-76
2022/08/31 01:38:47;;;;;;;0.00;0.00;;;16.20;99.90;226.50;231333.00;;;;4950423;28;20199;-76
2022/08/31 01:41:23;;;;;;;0.10;0.10;;;16.10;99.90;226.50;231333.00;;;;4937902;28;20204;-76
2022/08/31 01:43:54;;;;;;;0.00;0.00;;;16.00;99.90;226.50;231333.00;;;;4940616;29;20733;-77
2022/08/31 01:46:24;;;;;;;0.00;0.00;;;15.90;99.90;226.50;231333.00;;;;4949217;29;20186;-77
2022/08/31 01:48:56;;;;;;;0.10;0.10;;;16.00;99.90;226.50;231333.00;;;;4958270;28;20218;-77
2022/08/31 01:51:26;;;;;;;0.00;0.00;;;16.20;99.90;226.50;231333.00;;;;4956592;28;20222;-77
2022/08/31 01:53:58;;;;;;;0.00;0.00;;;16.10;99.90;226.50;231333.00;;;;4948111;28;20670;-77
2022/08/31 01:56:32;;;;;;;0.08;0.08;;;16.00;99.90;226.50;231333.00;;;;4944796;29;20297;-76
2022/08/31 01:59:05;;;;;;;0.00;0.00;;;15.90;99.90;226.50;231333.00;;;;4954077;28;20197;-76
2022/08/31 02:01:53;;;;;;;0.00;0.00;;;15.80;99.90;226.50;231333.00;;;;4943806;29;20217;-76
2022/08/31 02:04:28;;;;;;;0.10;0.10;;;15.60;99.90;226.50;231333.00;;;;4970073;28;20225;-75
2022/08/31 02:07:01;;;;;;;0.00;0.00;;;15.60;99.90;226.50;231333.00;;;;4950866;28;20193;-76
2022/08/31 02:09:33;;;;;;;0.00;0.00;;;15.50;99.90;226.50;231333.00;;;;4952213;28;20193;-75
2022/08/31 02:12:04;;;;;;;0.00;0.00;;;15.50;99.90;226.50;231333.00;;;;4951850;28;20217;-76
2022/08/31 02:14:35;;;;;;;0.03;0.03;;;15.60;99.90;226.50;231333.00;;;;4953220;28;20285;-75
2022/08/31 02:17:05;;;;;;;0.00;0.00;;;15.50;99.90;226.50;231333.00;;;;4934816;29;20709;-76
2022/08/31 02:19:38;;;;;;;0.00;0.00;;;15.50;99.90;226.50;231333.00;;;;4932963;29;20293;-75
2022/08/31 02:22:08;;;;;;;0.10;0.10;;;15.50;99.90;226.50;231333.00;;;;4943618;29;20211;-76
2022/08/31 02:24:40;;;;;;;0.00;0.00;;;15.40;99.90;226.50;231333.00;;;;4944867;28;20226;-76
2022/08/31 02:27:10;;;;;;;0.00;0.00;;;15.40;99.90;226.50;231333.00;;;;4942571;29;20300;-76
2022/08/31 02:29:41;;;;;;;0.00;0.00;;;15.50;99.90;226.50;231333.00;;;;4946557;29;20217;-76
2022/08/31 02:32:11;;;;;;;0.00;0.00;;;15.70;99.90;226.50;231333.00;;;;4949760;28;20201;-76
2022/08/31 02:34:50;;;;;;;0.10;0.10;;;15.70;99.90;226.50;231333.00;;;;4951872;28;20234;-76
2022/08/31 02:37:21;;;;;;;0.10;0.10;;;15.70;99.90;226.50;231333.00;;;;4952559;28;20207;-75
2022/08/31 02:39:53;;;;;;;0.00;0.00;;;15.80;99.90;226.50;231333.00;;;;4950773;29;20236;-76
2022/08/31 02:42:24;;;;;;;0.00;0.00;;;15.80;99.90;226.50;231333.00;;;;4951902;28;20225;-76
2022/08/31 02:44:58;;;;;;;0.00;0.00;;;15.80;99.90;226.50;231333.00;;;;4945977;28;20266;-76
2022/08/31 02:47:29;;;;;;;0.00;0.00;;;15.90;99.90;226.50;231333.00;;;;4941068;29;20201;-76
2022/08/31 02:50:08;;;;;;;0.00;0.00;;;15.90;99.90;226.50;231333.00;;;;4938225;28;20288;-76
2022/08/31 02:52:39;;;;;;;0.00;0.00;;;15.90;99.90;226.50;231333.00;;;;4948854;28;20203;-74
2022/08/31 02:55:11;;;;;;;0.00;0.00;;;16.00;99.90;226.50;231333.00;;;;4952993;28;20221;-75
2022/08/31 02:57:42;;;;;;;0.10;0.10;;;16.00;99.90;226.50;231333.00;;;;4951755;28;20222;-75
2022/08/31 03:00:14;;;;;;;0.00;0.00;;;15.90;99.90;226.50;231333.00;;;;4952420;28;20554;-75
2022/08/31 03:02:45;;;;;;;0.00;0.00;;;15.80;99.90;226.50;231333.00;;;;4955475;28;20228;-76
2022/08/31 03:05:17;;;;;;;0.00;0.00;;;15.70;99.90;226.50;231333.00;;;;4955554;29;20237;-76
2022/08/31 03:07:48;;;;;;;0.00;0.00;;;15.70;99.90;226.50;231333.00;;;;4952182;28;20285;-75
2022/08/31 03:10:22;;;;;;;0.10;0.10;;;15.70;99.90;226.50;231333.00;;;;4955296;28;20245;-76
2022/08/31 03:12:54;;;;;;;0.00;0.00;;;15.70;99.90;226.50;231333.00;;;;4952302;28;20194;-76
2022/08/31 03:15:28;;;;;;;0.00;0.00;;;15.70;99.90;226.50;231333.00;;;;4952633;28;20756;-76
2022/08/31 03:17:59;;;;;;;0.05;0.05;;;15.70;99.90;226.50;231333.00;;;;4942582;28;20675;-76
2022/08/31 03:20:35;;;;;;;0.00;0.00;;;15.70;99.90;226.50;231333.00;;;;4970570;28;20250;-76
2022/08/31 03:23:08;;;;;;;0.00;0.00;;;15.70;99.90;226.50;231333.00;;;;4958433;29;20290;-78
2022/08/31 03:25:40;;;;;;;0.00;0.00;;;15.70;99.90;226.50;231333.00;;;;4947195;29;20312;-78
2022/08/31 03:28:11;;;;;;;0.00;0.00;;;15.80;99.90;226.50;231333.00;;;;4953428;28;20685;-76
2022/08/31 03:30:45;;;;;;;0.00;0.00;;;15.80;99.90;226.50;231333.00;;;;4950214;28;20198;-76
2022/08/31 03:33:16;;;;;;;0.10;0.10;;;15.70;99.90;226.50;231333.00;;;;4952249;28;20793;-76
2022/08/31 03:35:47;;;;;;;0.00;0.00;;;15.80;99.90;226.50;231333.00;;;;4952013;28;20379;-75
2022/08/31 03:38:19;;;;;;;0.00;0.00;;;15.80;99.90;226.50;231333.00;;;;4952962;28;20849;-75
2022/08/31 03:40:50;;;;;;;0.00;0.00;;;15.80;99.90;226.50;231333.00;;;;4949431;28;20206;-76
2022/08/31 03:43:21;;;;;;;0.05;0.05;;;15.80;99.90;226.50;231333.00;;;;4952218;28;20214;-76
2022/08/31 03:45:51;;;;;;;0.00;0.00;;;15.80;99.90;226.50;231333.00;;;;4937313;29;20237;-77
2022/08/31 03:48:22;;;;;;;0.00;0.00;;;15.70;99.90;226.50;231333.00;;;;4952428;28;20202;-77
2022/08/31 03:50:53;;;;;;;0.00;0.00;;;15.60;99.90;226.50;231333.00;;;;4965109;28;20241;-78
2022/08/31 03:53:27;;;;;;;0.00;0.00;;;15.50;99.90;226.50;231333.00;;;;4952652;28;20221;-77
2022/08/31 03:56:02;;;;;;;0.00;0.00;;;15.40;99.90;226.50;231333.00;;;;4945509;28;20229;-77
2022/08/31 03:58:36;;;;;;;0.10;0.10;;;15.40;99.90;226.50;231333.00;;;;4950716;29;21706;-75
2022/08/31 04:01:10;;;;;;;0.00;0.00;;;15.30;99.90;226.50;231333.00;;;;4947076;28;20198;-75
2022/08/31 04:04:07;;;;;;;0.00;0.00;;;15.30;99.90;226.50;231333.00;;;;4946149;29;20214;-76
2022/08/31 04:06:55;;;;;;;0.00;0.00;;;15.20;99.90;226.50;231333.00;;;;4944729;28;20623;-77
2022/08/31 04:09:44;;;;;;;0.05;0.05;;;15.10;99.90;226.50;231333.00;;;;4947184;29;20692;-75
2022/08/31 04:12:44;;;;;;;0.00;0.00;;;15.20;99.90;226.50;231333.00;;;;4946105;29;20290;-75
2022/08/31 04:15:33;;;;;;;0.05;0.05;;;15.20;99.90;226.50;231333.00;;;;4938839;29;20709;-76
2022/08/31 04:18:39;;;;;;;0.00;0.00;;;15.10;99.90;226.50;231333.00;;;;4945642;28;20225;-77
2022/08/31 04:21:14;;;;;;;0.00;0.00;;;15.30;99.90;226.50;231333.00;;;;4951653;28;20207;-76
2022/08/31 04:23:45;;;;;;;0.00;0.00;;;15.30;99.90;226.50;231333.00;;;;4953885;28;20562;-75
2022/08/31 04:26:22;;;;;;;0.10;0.10;;;15.20;99.90;226.50;231333.00;;;;4952062;28;20212;-76
2022/08/31 04:28:55;;;;;;;0.00;0.00;;;15.10;99.90;226.50;231333.00;;;;4965381;28;20222;-76
2022/08/31 04:31:27;;;;;;;0.00;0.00;;;14.90;99.90;226.50;231333.00;;;;4948755;28;20569;-76
2022/08/31 04:33:59;;;;;;;0.00;0.00;;;14.90;99.90;226.50;231333.00;;;;4943039;28;20237;-76
2022/08/31 04:36:31;;;;;;;0.10;0.10;;;14.70;99.90;226.50;231333.00;;;;4963233;28;20601;-76
2022/08/31 04:39:05;;;;;;;0.10;0.10;;;14.70;99.90;226.50;231333.00;;;;4950573;29;20669;-75
2022/08/31 04:41:40;;;;;;;0.10;0.10;;;14.60;99.90;226.50;231333.00;;;;4970515;28;20202;-74
2022/08/31 04:44:15;;;;;;;0.00;0.00;;;14.60;99.90;226.50;231333.00;;;;4953650;28;20222;-73
2022/08/31 04:46:50;;;;;;;0.00;0.00;;;14.60;99.90;226.50;231333.00;;;;4959347;28;20289;-73
2022/08/31 04:49:20;;;;;;;0.00;0.00;;;14.70;99.90;226.50;231333.00;;;;4946925;28;20686;-74
2022/08/31 04:51:50;;;;;;;0.10;0.10;;;14.70;99.90;226.50;231333.00;;;;4956983;28;20213;-74
2022/08/31 04:54:21;;;;;;;0.10;0.10;;;14.70;99.90;226.50;231333.00;;;;4957874;28;20225;-72
2022/08/31 04:56:51;;;;;;;0.10;0.10;;;14.70;99.90;226.50;231333.00;;;;4947489;29;20342;-71
2022/08/31 04:59:32;;;;;;;0.05;0.05;;;14.70;99.90;226.50;231333.00;;;;4939396;29;20202;-72
2022/08/31 05:02:21;;;;;;;0.10;0.10;;;14.80;99.90;226.50;231333.00;;;;4947347;28;20217;-73
2022/08/31 05:05:02;;;;;;;0.08;0.08;;;14.90;99.90;226.50;231333.00;;;;4954197;28;20696;-73
2022/08/31 05:07:32;;;;;;;0.00;0.00;;;15.10;99.90;226.50;231333.00;;;;4934212;28;20678;-72
2022/08/31 05:10:04;;;;;;;0.00;0.00;;;15.20;99.90;226.50;231333.00;;;;4934401;29;20686;-72
2022/08/31 05:12:34;;;;;;;0.00;0.00;;;15.30;99.90;226.50;231333.00;;;;4952695;28;20202;-71
2022/08/31 05:15:07;;;;;;;0.00;0.00;;;15.30;99.90;226.50;231333.00;;;;5014449;23;20263;-75
2022/08/31 05:17:37;;;;;;;0.00;0.00;;;15.40;99.90;226.50;231333.00;;;;5008335;28;20756;-77
2022/08/31 05:20:09;;;;;;;0.00;0.00;;;15.50;99.90;226.50;231333.00;;;;5001333;28;20200;-75
2022/08/31 05:22:39;;;;;;;0.08;0.08;;;15.60;99.90;226.50;231333.00;;;;5013227;28;20188;-77
2022/08/31 05:25:10;;;;;;;0.00;0.00;;;15.70;99.90;226.50;231333.00;;;;4995608;28;20698;-77
2022/08/31 05:27:40;;;;;;;0.00;0.00;;;15.70;99.90;226.50;231333.00;;;;4988113;28;20203;-74
2022/08/31 05:30:14;;;;;;;0.10;0.10;;;15.70;99.90;226.50;231333.00;;;;4976982;28;20238;-75
2022/08/31 05:32:50;;;;;;;0.00;0.00;;;15.70;99.90;226.50;231333.00;;;;4972617;28;20283;-75
2022/08/31 05:35:20;;;;;;;0.00;0.00;;;15.70;99.90;226.50;231333.00;;;;4972300;28;20225;-75
2022/08/31 05:37:53;;;;;;;0.00;0.00;;;15.60;99.90;226.50;231333.00;;;;4977715;28;20554;-75
2022/08/31 05:40:24;;;;;;;0.00;0.00;;;15.50;99.90;226.50;231333.00;;;;4990885;28;20267;-75
2022/08/31 05:42:58;;;;;;;0.00;0.00;;;15.60;99.90;226.50;231333.00;;;;4991857;28;20204;-75
2022/08/31 05:45:29;;;;;;;0.10;0.10;;;15.70;99.90;226.50;231333.00;;;;4991967;28;20221;-75
2022/08/31 05:48:00;;;;;;;0.00;0.00;;;15.80;99.90;226.50;231333.00;;;;4991122;28;20577;-75
2022/08/31 05:50:31;;;;;;;0.00;0.00;;;15.70;99.90;226.50;231333.00;;;;4991577;28;20204;-75
2022/08/31 05:53:03;;;;;;;0.00;0.00;;;15.80;99.90;226.50;231333.00;;;;4992338;28;20196;-75
2022/08/31 05:55:40;;;;;;;0.00;0.00;;;15.90;99.90;226.50;231333.00;;;;5000349;28;20212;-75
2022/08/31 05:58:11;;;;;;;0.08;0.08;;;15.90;99.90;226.50;231333.00;;;;4993601;28;20200;-75
2022/08/31 06:00:43;;;;;;;0.10;0.10;;;15.90;99.90;226.50;231333.00;;;;4991584;28;20205;-75
2022/08/31 06:03:33;;;;;;;0.00;0.00;;;15.90;99.90;226.50;231333.00;;;;4992611;28;20204;-75
2022/08/31 06:06:07;;;;;;;0.00;0.00;;;16.00;99.90;226.50;231333.00;;;;5008625;28;20212;-76
2022/08/31 06:08:39;;;;;;;0.00;0.00;;;16.00;99.90;226.50;231333.00;;;;4995726;28;20655;-75
2022/08/31 06:11:16;;;;;;;0.00;0.00;;;16.10;99.90;226.50;231333.00;;;;4994380;28;20753;-76
2022/08/31 06:13:49;;;;;;;0.00;0.00;;;16.20;99.90;226.50;231333.00;;;;4996878;28;20228;-75
2022/08/31 06:16:22;;;;;;;0.00;0.00;;;16.10;99.90;226.50;231333.00;;;;5024906;28;20237;-75
2022/08/31 06:18:54;;;;;;;0.00;0.00;;;16.20;99.90;226.50;231333.00;;;;5030607;28;20191;-75
2022/08/31 06:21:29;;;;;;;0.00;0.00;;;16.20;99.90;226.50;231333.00;;;;5014801;28;20208;-75
2022/08/31 06:24:02;;;;;;;0.00;0.00;;;16.20;99.90;226.50;231333.00;;;;5013755;28;20211;-75
2022/08/31 06:26:35;;;;;;;0.00;0.00;;;16.20;99.90;226.50;231333.00;;;;5014040;28;20199;-75
2022/08/31 06:29:11;;;;;;;0.00;0.00;;;16.30;99.90;226.50;231333.00;;;;4992693;28;20729;-76
2022/08/31 06:31:45;;;;;;;0.00;0.00;;;16.30;99.90;226.50;231333.00;;;;4994732;28;20291;-76
2022/08/31 06:34:22;;;;;;;0.00;0.00;;;16.30;99.90;226.50;231333.00;;;;4995068;28;20243;-76
2022/08/31 06:37:14;;;;;;;0.10;0.10;;;16.30;99.90;226.50;231333.00;;;;4996087;28;20243;-76
2022/08/31 06:40:08;;;;;;;0.00;0.00;;;16.30;99.90;226.50;231333.00;;;;4996867;28;20202;-76
2022/08/31 06:42:59;;;;;;;0.03;0.03;;;16.30;99.90;226.50;231333.00;;;;4995095;28;20204;-76
2022/08/31 06:45:51;;;;;;;0.00;0.00;;;16.30;99.90;226.50;231333.00;;;;4994965;28;20200;-75
2022/08/31 06:48:36;;;;;;;0.00;0.00;;;16.30;99.90;226.50;231333.00;;;;4995843;28;20227;-76
2022/08/31 06:51:08;;;;;;;0.00;0.00;;;16.30;99.90;226.50;231333.00;;;;4995998;28;20227;-76
2022/08/31 06:53:41;;;;;;;0.00;0.00;;;16.30;99.90;226.50;231333.00;;;;4999348;28;20224;-76
2022/08/31 06:56:31;;;;;;;0.00;0.00;;;16.30;99.90;226.50;231333.00;;;;5010170;28;20318;-76
2022/08/31 06:59:20;;;;;;;0.10;0.10;;;16.40;99.90;226.50;231333.00;;;;5005746;28;20235;-76
2022/08/31 07:02:20;;;;;;;0.00;0.00;;;16.40;99.90;226.50;231333.00;;;;4994473;28;20236;-76
2022/08/31 07:04:51;;;;;;;0.00;0.00;;;16.50;99.90;226.50;231333.00;;;;4994917;28;20287;-76
2022/08/31 07:07:22;;;;;;;0.00;0.00;;;16.50;99.90;226.50;231333.00;;;;4995422;28;20239;-76
2022/08/31 07:09:54;;;;;;;0.00;0.00;;;16.50;99.90;226.50;231333.00;;;;4994651;28;20655;-76
2022/08/31 07:12:24;;;;;;;0.08;0.08;;;16.50;99.90;226.50;231333.00;;;;4996068;28;20184;-76
2022/08/31 07:14:55;;;;;;;0.08;0.08;;;16.50;99.90;226.50;231333.00;;;;4994271;28;20394;-76
2022/08/31 07:17:27;;;;;;;0.00;0.00;;;16.50;99.90;226.50;231333.00;;;;4996118;28;20227;-76
2022/08/31 07:19:59;;;;;;;0.00;0.00;;;16.60;99.90;226.50;231333.00;;;;4995657;28;20294;-76
2022/08/31 07:22:29;;;;;;;0.00;0.00;;;16.60;99.90;226.50;231333.00;;;;4994651;28;20283;-76
2022/08/31 07:25:18;;;;;;;0.00;0.00;;;16.60;99.90;226.50;231333.00;;;;4996738;28;20714;-76
2022/08/31 07:27:54;;;;;;;0.00;0.00;;;16.60;99.90;226.50;231333.00;;;;4994376;28;20200;-76
2022/08/31 07:30:25;;;;;;;0.00;0.00;;;16.60;99.90;226.50;231333.00;;;;4994748;28;20203;-76
2022/08/31 07:33:05;;;;;;;0.10;0.10;;;16.60;99.90;226.50;231333.00;;;;4994875;28;20538;-76
2022/08/31 07:35:40;;;;;;;0.08;0.08;;;16.70;99.90;226.50;231333.00;;;;4994520;28;20262;-75
2022/08/31 07:44:18;;;;;;;0.03;0.03;;;16.90;99.90;226.50;231333.00;;;;4994883;28;20267;-76
2022/08/31 07:46:51;;;;;;;0.10;0.10;;;16.90;99.90;226.50;231333.00;;;;4995457;28;20200;-76
2022/08/31 07:49:25;;;;;;;0.00;0.00;;;16.90;99.90;226.50;231333.00;;;;5003859;28;20196;-76
2022/08/31 07:52:09;;;;;;;0.00;0.00;;;16.90;99.90;226.50;231333.00;;;;4993994;28;20294;-76
2022/08/31 07:55:06;;;;;;;0.00;0.00;;;16.90;99.90;226.50;231333.00;;;;4992568;28;20664;-76
2022/08/31 07:57:56;;;;;;;0.00;0.00;;;16.90;99.90;226.50;231333.00;;;;4993536;28;20232;-76
2022/08/31 08:00:31;;;;;;;0.00;0.00;;;17.00;99.90;226.50;231333.00;;;;4993556;28;20212;-76
2022/08/31 08:03:05;;;;;;;0.00;0.00;;;17.10;99.90;226.50;231333.00;;;;4996082;28;20287;-76
2022/08/31 08:05:54;;;;;;;0.00;0.00;;;17.20;99.90;226.50;231333.00;;;;5003335;28;20196;-76
2022/08/31 08:08:46;;;;;;;0.00;0.00;;;17.30;99.90;226.50;231333.00;;;;5002148;28;20201;-76
2022/08/31 08:11:53;;;;;;;0.00;0.00;;;17.40;99.90;226.50;231333.00;;;;4993737;28;20247;-76
2022/08/31 08:14:42;;;;;;;0.00;0.00;;;17.50;99.90;226.50;231333.00;;;;4993684;28;20255;-76
2022/08/31 08:17:21;;;;;;;0.00;0.00;;;17.50;99.90;226.50;231333.00;;;;4993382;28;20251;-76
2022/08/31 08:19:59;;;;;;;0.00;0.00;;;17.60;99.90;226.50;231333.00;;;;4994713;28;20246;-76
2022/08/31 08:22:29;;;;;;;0.00;0.00;;;17.60;99.90;226.50;231333.00;;;;4993555;28;20203;-76
2022/08/31 08:25:33;;;;;;;0.00;0.00;;;17.60;99.90;226.50;231333.00;;;;4994728;28;20651;-76
2022/08/31 08:28:20;;;;;;;0.00;0.00;;;17.70;99.90;226.50;231333.00;;;;4993379;28;20289;-76
2022/08/31 08:31:16;;;;;;;0.00;0.00;;;17.70;99.90;226.50;231333.00;;;;4993717;28;20200;-76
2022/08/31 08:33:49;;;;;;;0.00;0.00;;;17.90;99.90;226.50;231333.00;;;;4992279;28;20223;-76
2022/08/31 08:36:20;;;;;;;0.00;0.00;;;17.90;99.90;226.50;231333.00;;;;4993306;28;20670;-76
2022/08/31 08:38:56;;;;;;;0.00;0.00;;;17.90;99.90;226.50;231333.00;;;;4992699;28;20239;-76
2022/08/31 08:41:32;;;;;;;0.00;0.00;;;18.00;99.90;226.50;231333.00;;;;4993361;28;20212;-76
2022/08/31 08:44:08;;;;;;;0.00;0.00;;;18.10;99.90;226.50;231333.00;;;;4995659;28;20243;-76
2022/08/31 08:46:47;;;;;;;0.00;0.00;;;18.10;99.90;226.50;231333.00;;;;4993605;28;20242;-76
2022/08/31 08:49:29;;;;;;;0.00;0.00;;;18.20;99.90;226.50;231333.00;;;;4993287;28;20196;-76
2022/08/31 08:52:10;;;;;;;0.00;0.00;;;18.30;99.90;226.50;231333.00;;;;4992917;28;20228;-76
2022/08/31 08:54:45;;;;;;;0.00;0.00;;;18.40;99.90;226.50;231333.00;;;;4993423;28;20307;-76
2022/08/31 08:57:27;;;;;;;0.00;0.00;;;18.50;99.90;226.50;231333.00;;;;4993115;28;20254;-75
2022/08/31 09:00:06;;;;;;;0.00;0.00;;;18.60;99.90;226.50;231333.00;;;;4994629;28;20211;-76
2022/08/31 09:02:48;;;;;;;0.00;0.00;;;18.70;99.90;226.50;231333.00;;;;5003771;28;20223;-76
2022/08/31 09:05:58;;;;;;;0.00;0.00;;;18.80;99.90;226.50;231333.00;;;;4993295;28;20220;-76
2022/08/31 09:09:20;;;;;;;0.00;0.00;;;18.80;99.90;226.50;231333.00;;;;4992906;28;20203;-76
2022/08/31 09:12:23;;;;;;;0.00;0.00;;;18.90;99.90;226.50;231333.00;;;;4917868;29;20201;-76
2022/08/31 09:15:34;;;;;;;0.00;0.00;;;18.90;99.90;226.50;231333.00;;;;4992120;28;20220;-76
2022/08/31 09:18:30;;;;;;;0.00;0.00;;;19.10;99.90;226.50;231333.00;;;;4992548;28;20251;-76
2022/08/31 09:21:20;;;;;;;0.00;0.00;;;19.20;99.90;226.50;231333.00;;;;4992729;28;20199;-76
2022/08/31 09:24:02;;;;;;;0.00;0.00;;;19.40;99.90;226.50;231333.00;;;;4992817;28;20218;-76
2022/08/31 09:27:16;;;;;;;0.00;0.00;;;19.50;99.90;226.50;231333.00;;;;4992410;28;20228;-76
2022/08/31 09:29:55;;;;;;;0.00;0.00;;;19.70;99.90;226.50;231333.00;;;;4993135;28;20243;-76
2022/08/31 09:32:33;;;;;;;0.00;0.00;;;19.70;99.90;226.50;231333.00;;;;4993860;28;20684;-76
2022/08/31 09:35:08;;;;;;;0.00;0.00;;;19.70;99.90;226.50;231333.00;;;;4994234;28;20783;-76
2022/08/31 09:37:44;;;;;;;0.00;0.00;;;19.70;99.90;226.50;231333.00;;;;4993371;28;20212;-76
2022/08/31 09:40:26;;;;;;;0.00;0.00;;;19.70;99.90;226.50;231333.00;;;;4993715;28;20581;-76
2022/08/31 09:43:08;;;;;;;0.00;0.00;;;19.70;99.90;226.50;231333.00;;;;4993403;28;20192;-76
2022/08/31 09:45:51;;;;;;;0.00;0.00;;;19.70;99.90;226.50;231333.00;;;;4993123;28;20220;-76
2022/08/31 09:48:50;;;;;;;0.00;0.00;;;19.70;99.90;226.50;231333.00;;;;4993098;28;20275;-76
2022/08/31 09:51:28;;;;;;;0.00;0.00;;;19.80;99.90;226.50;231333.00;;;;4993475;28;20189;-76
2022/08/31 09:56:58;;;;;;;0.00;0.00;;;19.80;99.90;226.50;231333.00;;;;4993219;28;20192;-76
2022/08/31 09:59:42;;;;;;;0.00;0.00;;;19.70;99.90;226.50;231333.00;;;;4987126;28;20239;-76
2022/08/31 10:02:32;;;;;;;0.00;0.00;;;19.80;99.90;226.50;231333.00;;;;4978691;28;20203;-76
2022/08/31 10:05:25;;;;;;;0.00;0.00;;;19.80;99.90;226.50;231333.00;;;;4997496;28;20216;-76
2022/08/31 10:08:06;;;;;;;0.00;0.00;;;19.80;99.90;226.50;231333.00;;;;4996472;28;20204;-76
2022/08/31 10:10:42;;;;;;;0.00;0.00;;;19.90;99.90;226.50;231333.00;;;;4993044;28;20203;-76
2022/08/31 10:13:22;;;;;;;0.00;0.00;;;19.90;99.90;226.50;231333.00;;;;4994812;28;20188;-74
2022/08/31 10:15:59;;;;;;;0.00;0.00;;;19.90;99.90;226.50;231333.00;;;;4992476;28;20203;-74
2022/08/31 10:18:38;;;;;;;0.00;0.00;;;20.00;99.90;226.50;231333.00;;;;4992675;28;20223;-75
2022/08/31 10:21:20;;;;;;;0.00;0.00;;;20.10;99.90;226.50;231333.00;;;;4992927;28;20192;-75
2022/08/31 10:23:57;;;;;;;0.00;0.00;;;20.20;99.90;226.50;231333.00;;;;4992591;28;20236;-75
2022/08/31 10:26:36;;;;;;;0.00;0.00;;;20.20;99.90;226.50;231333.00;;;;4993348;28;20219;-74
2022/08/31 10:29:17;;;;;;;0.00;0.00;;;20.30;99.90;226.50;231333.00;;;;4992316;28;20671;-74
2022/08/31 10:31:59;;;;;;;0.00;0.00;;;20.30;99.90;226.50;231333.00;;;;4992538;28;20196;-75
2022/08/31 10:37:38;;;;;;;0.00;0.00;;;20.50;99.90;226.50;231333.00;;;;4991979;28;20258;-75
2022/08/31 10:40:16;;;;;;;0.00;0.00;;;20.50;99.90;226.50;231333.00;;;;4992312;28;20192;-74
2022/08/31 10:42:59;;;;;;;0.00;0.00;;;20.60;99.90;226.50;231333.00;;;;4992443;28;20271;-74
2022/08/31 10:45:34;;;;;;;0.00;0.00;;;20.60;99.90;226.50;231333.00;;;;4992780;28;20216;-74
2022/08/31 10:48:05;;;;;;;0.00;0.00;;;20.60;99.90;226.50;231333.00;;;;4991448;28;20203;-74
2022/08/31 10:50:45;;;;;;;0.00;0.00;;;20.60;99.90;226.50;231333.00;;;;4992668;28;20188;-75
2022/08/31 10:53:33;;;;;;;0.00;0.00;;;20.60;99.90;226.50;231333.00;;;;4990082;28;20208;-74
2022/08/31 10:56:17;;;;;;;0.00;0.00;;;20.60;99.90;226.50;231333.00;;;;4992419;28;20602;-74
2022/08/31 10:59:08;;;;;;;0.00;0.00;;;20.60;99.90;226.50;231333.00;;;;4991781;28;20985;-75
2022/08/31 11:01:55;;;;;;;0.00;0.00;;;20.60;99.90;226.50;231333.00;;;;4995362;28;20203;-74
2022/08/31 11:04:57;;;;;;;0.00;0.00;;;20.70;99.90;226.50;231333.00;;;;5001734;28;20213;-76
2022/08/31 11:07:47;;;;;;;0.00;0.00;;;20.70;99.90;226.50;231333.00;;;;4999435;28;20651;-75
2022/08/31 11:10:35;;;;;;;0.00;0.00;;;20.70;99.90;226.50;231333.00;;;;4990848;28;20196;-74
2022/08/31 11:13:19;;;;;;;0.00;0.00;;;20.70;99.90;226.50;231333.00;;;;4992913;28;20196;-74
2022/08/31 11:16:25;;;;;;;0.00;0.00;;;20.70;99.90;226.50;231333.00;;;;5012202;23;20238;-75
2022/08/31 11:19:36;;;;;;;0.00;0.00;;;20.80;99.90;226.50;231333.00;;;;4988864;28;20338;-75
2022/08/31 11:22:39;;;;;;;0.00;0.00;;;20.90;99.90;226.50;231333.00;;;;4994201;28;20204;-76
2022/08/31 11:26:09;;;;;;;0.00;0.00;;;20.90;99.90;226.50;231333.00;;;;4989771;28;20699;-76
2022/08/31 11:28:47;;;;;;;0.00;0.00;;;21.00;99.90;226.50;231333.00;;;;4962485;28;20671;-75
2022/08/31 11:31:26;;;;;;;0.00;0.00;;;21.10;99.90;226.50;231333.00;;;;4975836;28;20201;-76
2022/08/31 11:34:11;;;;;;;0.00;0.00;;;21.10;99.90;226.50;231333.00;;;;4975918;28;20196;-76
2022/08/31 11:36:52;;;;;;;0.00;0.00;;;21.20;99.90;226.50;231333.00;;;;4975257;28;20229;-76
2022/08/31 11:39:36;;;;;;;0.00;0.00;;;21.20;99.90;226.50;231333.00;;;;4975675;28;20588;-76
2022/08/31 11:42:33;;;;;;;0.00;0.00;;;21.20;99.90;226.50;231333.00;;;;4975402;28;20287;-76